Time;durP1;ratioP1;P1;durP2;ratioP2;P2;SDS_P1;SDS_P2;PMS_P1;PMS_P2;Temp;Humidity;BMP_temperature;BMP_pressure;BME280_temperature;BME280_humidity;BME280_pressure;Samples;Min_cycle;Max_cycle;Signal;HPM_P1;HPM_P2
2022/11/25 00:01:10;;;;;;;11.10;5.83;;;5.70;1.00;;;;;;5020486;28;20434;-64
2022/11/25 00:03:37;;;;;;;11.63;6.60;;;5.70;1.00;;;;;;5010076;28;20472;-63
2022/11/25 00:06:22;;;;;;;12.20;6.63;;;5.80;1.00;;;;;;5010125;28;20536;-62
2022/11/25 00:08:52;;;;;;;15.73;6.57;;;5.70;1.00;;;;;;5009507;28;20490;-64
2022/11/25 00:11:18;;;;;;;10.03;6.00;;;5.70;1.00;;;;;;5009634;28;20439;-64
2022/11/25 00:13:46;;;;;;;14.73;7.33;;;5.70;1.00;;;;;;5010032;28;20519;-63
2022/11/25 00:16:14;;;;;;;14.70;6.83;;;5.70;1.00;;;;;;5010217;28;20264;-63
2022/11/25 00:18:47;;;;;;;21.83;8.00;;;5.70;1.00;;;;;;5010297;28;20487;-61
2022/11/25 00:21:15;;;;;;;19.13;7.37;;;5.60;1.00;;;;;;5009228;28;20407;-63
2022/11/25 00:23:40;;;;;;;22.43;7.70;;;5.50;1.00;;;;;;5009562;28;20466;-62
2022/11/25 00:26:11;;;;;;;16.07;7.63;;;5.60;10.50;;;;;;5009954;28;20455;-65
2022/11/25 00:28:38;;;;;;;15.43;7.33;;;5.50;36.60;;;;;;5009252;28;20203;-63
2022/11/25 00:31:19;;;;;;;15.23;6.90;;;5.50;40.40;;;;;;5008651;28;20430;-62
2022/11/25 00:33:48;;;;;;;13.60;6.80;;;5.60;1.00;;;;;;5009984;28;20498;-62
2022/11/25 00:36:22;;;;;;;13.43;8.30;;;5.40;1.00;;;;;;5009936;28;20532;-62
2022/11/25 00:38:55;;;;;;;13.73;6.77;;;5.30;1.00;;;;;;5009168;28;20427;-63
2022/11/25 00:46:52;;;;;;;12.90;7.43;;;4.80;1.00;;;;;;5009995;28;20453;-61
2022/11/25 00:49:17;;;;;;;10.87;6.03;;;4.70;99.90;;;;;;5009940;28;20886;-62
2022/11/25 00:51:43;;;;;;;12.73;7.23;;;4.80;99.90;;;;;;5009602;28;20191;-63
2022/11/25 00:54:09;;;;;;;13.60;6.90;;;4.80;99.90;;;;;;5009692;28;20187;-63
2022/11/25 00:56:34;;;;;;;9.90;7.27;;;4.80;1.00;;;;;;5010614;28;20196;-63
2022/11/25 00:59:00;;;;;;;17.17;6.97;;;5.00;99.90;;;;;;5010226;28;20239;-64
2022/11/25 01:01:26;;;;;;;12.50;6.80;;;5.10;25.70;;;;;;5022180;28;20634;-63
2022/11/25 01:03:52;;;;;;;12.50;7.20;;;5.10;1.00;;;;;;5029184;28;20175;-62
2022/11/25 01:06:18;;;;;;;15.37;6.90;;;5.00;1.00;;;;;;5029370;28;20207;-65
2022/11/25 01:08:43;;;;;;;13.07;6.90;;;5.30;1.00;;;;;;5029183;28;20414;-64
2022/11/25 01:11:12;;;;;;;8.97;6.47;;;5.40;1.00;;;;;;5029079;28;20603;-63
2022/11/25 01:13:38;;;;;;;11.60;6.70;;;5.50;1.00;;;;;;5029188;28;20209;-65
2022/11/25 01:16:05;;;;;;;9.93;6.50;;;5.50;1.00;;;;;;5029306;28;20446;-65
2022/11/25 01:18:32;;;;;;;13.60;6.73;;;5.50;1.00;;;;;;5029072;28;20175;-65
2022/11/25 01:21:13;;;;;;;11.63;6.70;;;5.50;1.00;;;;;;5029000;28;20560;-64
2022/11/25 01:23:39;;;;;;;13.80;6.87;;;5.40;1.00;;;;;;5029095;28;20418;-65
2022/11/25 01:26:11;;;;;;;13.70;7.80;;;5.30;1.00;;;;;;5029152;28;20450;-64
2022/11/25 01:28:37;;;;;;;13.57;6.80;;;5.30;1.00;;;;;;5029143;28;20798;-64
2022/11/25 01:31:09;;;;;;;12.90;7.47;;;5.30;1.00;;;;;;5028598;28;20399;-64
2022/11/25 01:33:35;;;;;;;11.20;7.47;;;5.30;1.00;;;;;;5028769;28;20464;-65
2022/11/25 01:36:06;;;;;;;15.40;7.27;;;5.10;1.00;;;;;;5029012;28;20576;-63
2022/11/25 01:38:32;;;;;;;15.30;8.57;;;4.80;99.90;;;;;;5028774;28;20411;-64
2022/11/25 01:40:59;;;;;;;11.60;7.30;;;4.60;1.00;;;;;;5030283;28;20895;-65
2022/11/25 01:43:26;;;;;;;12.83;8.03;;;4.60;99.90;;;;;;5032841;28;20484;-64
2022/11/25 01:45:56;;;;;;;11.10;7.23;;;4.60;99.90;;;;;;5032935;28;20645;-64
2022/11/25 01:48:32;;;;;;;15.20;6.93;;;4.70;1.00;;;;;;5032301;28;21072;-62
2022/11/25 01:50:58;;;;;;;14.10;8.23;;;4.70;1.00;;;;;;5031716;28;20542;-64
2022/11/25 01:53:24;;;;;;;16.00;6.87;;;4.80;1.00;;;;;;5031413;28;20808;-63
2022/11/25 01:56:01;;;;;;;12.13;7.43;;;5.00;99.90;;;;;;5032256;28;20520;-64
2022/11/25 01:58:36;;;;;;;11.57;6.73;;;5.10;1.00;;;;;;5032270;28;20233;-63
2022/11/25 02:01:02;;;;;;;15.90;7.00;;;5.10;1.00;;;;;;5038517;28;20511;-63
2022/11/25 02:03:39;;;;;;;13.83;6.87;;;5.20;1.00;;;;;;5051900;28;20413;-62
2022/11/25 02:06:24;;;;;;;13.47;5.90;;;5.00;1.00;;;;;;5052293;28;20490;-61
2022/11/25 02:08:56;;;;;;;7.80;6.10;;;5.00;1.00;;;;;;5051285;28;20766;-63
2022/11/25 02:11:25;;;;;;;15.70;7.37;;;5.00;1.00;;;;;;5051362;28;20402;-64
2022/11/25 02:13:52;;;;;;;18.30;7.30;;;4.90;1.00;;;;;;5051591;28;20405;-63
2022/11/25 02:16:18;;;;;;;13.20;7.87;;;4.80;1.00;;;;;;5051871;28;20917;-64
2022/11/25 02:18:44;;;;;;;17.93;7.00;;;4.80;1.00;;;;;;5051274;28;20431;-63
2022/11/25 02:21:09;;;;;;;7.80;5.80;;;4.70;1.00;;;;;;5050995;28;20224;-64
2022/11/25 02:23:52;;;;;;;9.07;7.20;;;4.60;1.00;;;;;;5051007;28;20409;-63
2022/11/25 02:26:19;;;;;;;9.50;7.60;;;4.60;1.00;;;;;;5051591;28;20279;-62
2022/11/25 02:28:45;;;;;;;11.40;8.20;;;4.60;1.00;;;;;;5051484;28;20401;-63
2022/11/25 02:31:11;;;;;;;9.10;6.90;;;4.50;80.30;;;;;;5050415;28;20406;-62
2022/11/25 02:33:37;;;;;;;9.90;7.80;;;4.60;99.90;;;;;;5051268;28;20420;-63
2022/11/25 02:36:11;;;;;;;10.93;8.23;;;4.70;99.90;;;;;;5051219;28;20198;-63
2022/11/25 02:38:48;;;;;;;10.67;8.33;;;4.70;2.80;;;;;;5050853;28;20261;-63
2022/11/25 02:41:17;;;;;;;11.20;8.67;;;4.70;99.90;;;;;;5050506;28;20420;-62
2022/11/25 02:43:43;;;;;;;11.90;8.50;;;4.80;1.00;;;;;;5051078;28;20512;-62
2022/11/25 02:46:12;;;;;;;12.77;7.97;;;4.80;1.00;;;;;;5051160;28;20472;-65
2022/11/25 02:48:39;;;;;;;18.00;8.17;;;4.70;99.90;;;;;;5050929;28;20167;-65
2022/11/25 02:51:06;;;;;;;15.00;9.03;;;4.80;99.90;;;;;;5050040;28;20779;-61
2022/11/25 02:53:32;;;;;;;11.10;7.27;;;4.70;99.90;;;;;;5049462;28;20397;-63
2022/11/25 02:55:58;;;;;;;9.33;7.73;;;4.60;99.90;;;;;;5050968;28;20510;-62
2022/11/25 02:58:24;;;;;;;10.57;7.70;;;4.60;1.00;;;;;;5051014;28;20186;-63
2022/11/25 03:00:50;;;;;;;10.93;7.77;;;4.60;1.00;;;;;;5042281;28;20418;-62
2022/11/25 03:03:16;;;;;;;13.93;8.17;;;4.60;1.00;;;;;;5030728;28;20501;-63
2022/11/25 03:05:42;;;;;;;12.73;8.10;;;4.60;1.00;;;;;;5030922;28;20210;-61
2022/11/25 03:08:08;;;;;;;11.40;7.30;;;4.60;99.90;;;;;;5030195;28;20198;-59
2022/11/25 03:10:35;;;;;;;10.60;7.83;;;4.70;99.90;;;;;;5030123;28;20167;-63
2022/11/25 03:13:00;;;;;;;10.60;7.73;;;4.60;99.90;;;;;;5030884;28;20438;-63
2022/11/25 03:15:27;;;;;;;10.00;7.00;;;4.60;1.00;;;;;;5031108;28;20453;-63
2022/11/25 03:17:52;;;;;;;10.67;6.47;;;4.60;1.00;;;;;;5030869;28;20175;-62
2022/11/25 03:20:19;;;;;;;10.97;6.27;;;4.40;1.00;;;;;;5030333;28;20414;-60
2022/11/25 03:22:45;;;;;;;10.20;7.30;;;4.30;1.00;;;;;;5030198;28;20237;-62
2022/11/25 03:25:12;;;;;;;11.63;8.37;;;4.20;1.00;;;;;;5030592;28;20802;-63
2022/11/25 03:27:38;;;;;;;8.13;7.00;;;4.20;99.90;;;;;;5030507;28;20405;-63
2022/11/25 03:30:10;;;;;;;7.80;6.83;;;4.30;1.00;;;;;;5030787;28;20758;-63
2022/11/25 03:32:37;;;;;;;9.33;7.10;;;4.20;1.00;;;;;;5030495;28;20870;-63
2022/11/25 03:35:03;;;;;;;11.40;6.93;;;4.30;1.00;;;;;;5030797;28;20422;-63
2022/11/25 03:37:29;;;;;;;10.10;7.10;;;4.20;1.00;;;;;;5029801;28;20239;-63
2022/11/25 03:39:55;;;;;;;8.50;6.67;;;4.30;1.00;;;;;;5030010;28;20485;-63
2022/11/25 03:42:20;;;;;;;8.20;6.33;;;4.30;1.00;;;;;;5028585;28;20255;-63
2022/11/25 03:44:46;;;;;;;8.63;7.73;;;4.40;1.00;;;;;;5030106;28;20206;-63
2022/11/25 03:47:12;;;;;;;13.33;7.07;;;4.40;99.90;;;;;;5030162;28;20270;-63
2022/11/25 03:49:37;;;;;;;11.87;6.70;;;4.50;99.90;;;;;;5030464;28;20388;-63
2022/11/25 03:52:03;;;;;;;8.33;7.50;;;4.40;99.90;;;;;;5029774;28;20175;-63
2022/11/25 03:54:29;;;;;;;7.03;6.37;;;4.30;96.80;;;;;;5029745;28;20542;-62
2022/11/25 03:56:55;;;;;;;10.30;7.43;;;4.30;1.00;;;;;;5030306;28;20251;-63
2022/11/25 03:59:21;;;;;;;15.30;6.83;;;4.20;99.90;;;;;;5030327;28;20410;-63
2022/11/25 04:01:46;;;;;;;13.07;7.13;;;4.00;1.00;;;;;;5029628;28;20537;-63
2022/11/25 04:04:12;;;;;;;14.77;7.43;;;4.10;1.00;;;;;;5029562;28;20171;-63
2022/11/25 04:06:38;;;;;;;8.43;6.60;;;4.00;1.00;;;;;;5029920;28;20283;-63
2022/11/25 04:09:05;;;;;;;9.10;6.57;;;4.20;1.00;;;;;;5029710;28;20414;-60
2022/11/25 04:14:15;;;;;;;7.30;6.30;;;4.30;1.00;;;;;;5030090;28;20405;-63
2022/11/25 04:16:41;;;;;;;10.57;7.03;;;4.30;99.90;;;;;;5029723;28;20466;-63
2022/11/25 04:19:06;;;;;;;7.60;6.20;;;4.20;1.00;;;;;;5029394;28;20183;-63
2022/11/25 04:21:32;;;;;;;10.70;7.07;;;4.10;98.90;;;;;;5028525;28;20182;-64
2022/11/25 04:23:58;;;;;;;11.10;6.40;;;4.20;1.00;;;;;;5028788;28;20179;-64
2022/11/25 04:26:24;;;;;;;17.63;6.70;;;4.20;99.90;;;;;;5029374;28;20264;-64
2022/11/25 04:28:49;;;;;;;8.50;6.20;;;4.20;1.00;;;;;;5029095;28;20196;-64
2022/11/25 04:31:15;;;;;;;7.93;7.10;;;4.20;99.90;;;;;;5028509;28;20233;-64
2022/11/25 04:33:41;;;;;;;7.80;5.70;;;4.30;99.90;;;;;;5029037;28;20537;-64
2022/11/25 04:36:07;;;;;;;8.63;7.60;;;4.20;77.40;;;;;;5029001;28;20534;-64
2022/11/25 04:38:32;;;;;;;9.47;7.60;;;4.30;99.90;;;;;;5028576;28;20593;-64
2022/11/25 04:40:58;;;;;;;11.40;8.50;;;4.30;26.10;;;;;;5028259;28;20418;-64
2022/11/25 04:43:24;;;;;;;8.90;7.20;;;4.40;1.00;;;;;;5029080;28;20659;-64
2022/11/25 04:45:50;;;;;;;11.07;6.63;;;4.40;99.90;;;;;;5029126;28;20214;-64
2022/11/25 04:48:16;;;;;;;15.30;8.47;;;4.40;1.00;;;;;;5028788;28;20168;-66
2022/11/25 04:50:42;;;;;;;7.07;6.10;;;4.50;1.00;;;;;;5028081;28;20464;-64
2022/11/25 04:53:08;;;;;;;6.80;6.10;;;4.50;1.00;;;;;;5028528;28;20255;-63
2022/11/25 04:55:33;;;;;;;9.13;7.37;;;4.50;1.00;;;;;;5028942;28;20196;-63
2022/11/25 04:57:59;;;;;;;12.63;6.33;;;4.50;1.00;;;;;;5028701;28;20178;-64
2022/11/25 05:00:25;;;;;;;16.33;5.67;;;4.40;99.90;;;;;;5024141;28;20552;-63
2022/11/25 05:02:51;;;;;;;7.60;6.27;;;4.40;1.00;;;;;;5010019;28;20399;-64
2022/11/25 05:05:16;;;;;;;8.20;5.80;;;4.40;1.00;;;;;;5009327;28;20281;-64
2022/11/25 05:07:42;;;;;;;8.20;5.97;;;4.40;1.00;;;;;;5008393;28;20653;-63
2022/11/25 05:10:08;;;;;;;10.67;6.60;;;4.30;1.00;;;;;;5009099;28;20164;-63
2022/11/25 05:12:34;;;;;;;13.90;6.40;;;4.40;1.00;;;;;;5008235;28;20649;-64
2022/11/25 05:15:00;;;;;;;8.27;6.60;;;4.40;1.00;;;;;;5008825;28;20278;-64
2022/11/25 05:17:28;;;;;;;8.60;6.83;;;4.50;99.90;;;;;;5012656;28;20447;-64
2022/11/25 05:19:55;;;;;;;7.40;6.23;;;4.50;99.90;;;;;;5012958;28;20234;-64
2022/11/25 05:22:23;;;;;;;24.57;6.47;;;4.50;1.00;;;;;;5023676;28;20434;-63
2022/11/25 05:24:49;;;;;;;7.60;5.60;;;4.50;99.90;;;;;;5033087;28;20466;-64
2022/11/25 05:27:15;;;;;;;10.17;6.40;;;4.60;99.90;;;;;;5033515;28;20504;-63
2022/11/25 05:29:41;;;;;;;9.50;6.80;;;4.60;99.90;;;;;;5033827;28;20172;-63
2022/11/25 05:32:07;;;;;;;9.10;6.10;;;4.50;1.00;;;;;;5032545;28;20402;-63
2022/11/25 05:34:33;;;;;;;13.83;6.50;;;4.40;1.00;;;;;;5033261;28;20191;-62
2022/11/25 05:36:58;;;;;;;9.90;6.97;;;4.40;1.00;;;;;;5033461;28;20577;-64
2022/11/25 05:39:25;;;;;;;8.80;6.77;;;4.40;1.00;;;;;;5029502;28;20188;-65
2022/11/25 05:41:50;;;;;;;16.53;5.60;;;4.10;99.90;;;;;;5016069;28;20176;-63
2022/11/25 05:44:16;;;;;;;7.40;6.37;;;4.10;1.00;;;;;;5036562;28;20421;-63
2022/11/25 05:46:45;;;;;;;9.10;6.60;;;4.20;1.00;;;;;;5031708;28;20319;-63
2022/11/25 05:49:12;;;;;;;11.87;7.40;;;4.30;99.90;;;;;;5025801;28;20294;-63
2022/11/25 05:51:38;;;;;;;14.03;7.07;;;4.30;1.00;;;;;;5031672;28;20408;-63
2022/11/25 05:54:03;;;;;;;20.30;8.53;;;4.30;99.90;;;;;;5031083;28;20417;-65
2022/11/25 05:56:29;;;;;;;18.27;7.53;;;4.40;1.00;;;;;;5031928;28;20231;-65
2022/11/25 05:58:56;;;;;;;15.87;10.13;;;4.40;1.00;;;;;;5030504;28;20420;-65
2022/11/25 06:01:22;;;;;;;18.90;9.10;;;4.30;99.90;;;;;;5031201;28;20191;-64
2022/11/25 06:03:48;;;;;;;15.33;8.00;;;4.30;1.00;;;;;;5031100;28;20426;-64
2022/11/25 06:06:14;;;;;;;13.63;8.00;;;4.20;99.90;;;;;;5031217;28;20493;-64
2022/11/25 06:08:39;;;;;;;17.87;9.63;;;4.10;1.00;;;;;;5031583;28;20195;-65
2022/11/25 06:11:10;;;;;;;14.43;8.37;;;4.30;1.00;;;;;;5031297;28;20176;-64
2022/11/25 06:13:37;;;;;;;16.77;9.30;;;4.40;16.00;;;;;;5026608;28;20219;-65
2022/11/25 06:16:12;;;;;;;12.90;8.50;;;4.40;99.90;;;;;;5031687;28;20437;-65
2022/11/25 06:18:38;;;;;;;26.30;8.90;;;4.40;1.00;;;;;;5030523;28;20408;-65
2022/11/25 06:21:07;;;;;;;14.43;8.20;;;4.30;1.00;;;;;;5026860;28;20438;-65
2022/11/25 06:23:33;;;;;;;28.03;9.17;;;4.30;1.00;;;;;;5028193;28;20414;-64
2022/11/25 06:26:15;;;;;;;18.00;8.17;;;4.50;99.90;;;;;;5026346;28;20568;-65
2022/11/25 06:28:41;;;;;;;19.07;8.30;;;4.40;93.30;;;;;;5023815;28;20426;-65
2022/11/25 06:31:16;;;;;;;17.60;8.93;;;4.30;99.90;;;;;;5016486;28;20441;-64
2022/11/25 06:33:45;;;;;;;16.67;8.27;;;4.30;99.90;;;;;;5028720;28;20191;-64
2022/11/25 06:36:15;;;;;;;19.70;8.33;;;4.30;1.00;;;;;;5020787;28;20458;-64
2022/11/25 06:38:45;;;;;;;17.70;10.37;;;4.30;1.00;;;;;;5028095;28;20434;-64
2022/11/25 06:41:12;;;;;;;14.40;8.27;;;4.20;1.00;;;;;;5027821;28;20434;-64
2022/11/25 06:43:37;;;;;;;16.23;9.00;;;4.30;78.40;;;;;;5027613;28;20508;-65
2022/11/25 06:46:05;;;;;;;18.03;10.30;;;4.40;99.90;;;;;;5026827;28;20466;-65
2022/11/25 06:48:31;;;;;;;25.20;11.40;;;4.60;1.00;;;;;;5024469;28;20270;-64
2022/11/25 06:51:03;;;;;;;20.30;9.73;;;4.50;1.00;;;;;;5024643;28;20521;-63
2022/11/25 06:53:30;;;;;;;22.63;13.83;;;4.70;99.90;;;;;;5024991;28;20967;-62
2022/11/25 06:56:11;;;;;;;17.17;9.03;;;4.60;1.00;;;;;;5026346;28;20457;-63
2022/11/25 06:58:37;;;;;;;20.87;10.90;;;4.60;1.00;;;;;;5024192;28;21100;-63
2022/11/25 07:01:05;;;;;;;20.23;9.13;;;4.70;1.00;;;;;;5028460;28;20468;-62
2022/11/25 07:03:31;;;;;;;27.53;11.20;;;4.70;1.00;;;;;;5029899;28;20207;-63
2022/11/25 07:05:58;;;;;;;34.53;11.17;;;4.70;1.00;;;;;;5029055;28;20536;-63
2022/11/25 07:08:25;;;;;;;25.20;9.90;;;4.70;1.00;;;;;;5027869;28;20189;-63
2022/11/25 07:10:51;;;;;;;29.07;11.50;;;4.70;1.00;;;;;;5026386;28;20433;-63
2022/11/25 07:13:16;;;;;;;17.60;9.50;;;4.80;1.00;;;;;;5027116;28;20438;-63
2022/11/25 07:15:42;;;;;;;20.20;10.47;;;4.60;1.00;;;;;;5027302;28;20939;-63
2022/11/25 07:18:07;;;;;;;18.60;8.83;;;4.70;99.90;;;;;;5026948;28;20242;-62
2022/11/25 07:20:33;;;;;;;13.00;9.77;;;4.70;1.00;;;;;;5026142;28;20758;-63
2022/11/25 07:22:59;;;;;;;12.67;9.20;;;4.70;99.90;;;;;;5026846;28;20242;-65
2022/11/25 07:25:24;;;;;;;17.63;8.83;;;4.70;1.00;;;;;;5026414;28;20311;-65
2022/11/25 07:27:50;;;;;;;12.63;9.20;;;4.80;99.90;;;;;;5026828;28;20187;-64
2022/11/25 07:30:16;;;;;;;15.13;10.10;;;4.90;99.90;;;;;;5024896;28;20565;-65
2022/11/25 07:32:42;;;;;;;12.70;9.50;;;4.80;1.00;;;;;;5026479;28;20202;-65
2022/11/25 07:35:08;;;;;;;15.33;9.00;;;4.60;99.90;;;;;;5026369;28;20477;-65
2022/11/25 07:37:34;;;;;;;16.27;10.00;;;4.60;1.00;;;;;;5025360;28;20430;-62
2022/11/25 07:39:59;;;;;;;14.57;9.97;;;4.80;99.90;;;;;;5026248;28;20191;-65
2022/11/25 07:42:25;;;;;;;16.90;9.57;;;4.80;1.00;;;;;;5024193;28;20183;-65
2022/11/25 07:44:51;;;;;;;14.33;8.70;;;4.90;99.90;;;;;;5026214;28;20302;-62
2022/11/25 07:47:17;;;;;;;16.27;10.30;;;4.90;1.00;;;;;;5025576;28;20631;-63
2022/11/25 07:49:42;;;;;;;13.50;9.70;;;5.00;99.90;;;;;;5028181;28;20180;-62
2022/11/25 07:52:08;;;;;;;18.47;10.03;;;4.80;99.90;;;;;;5029114;28;20255;-57
2022/11/25 07:54:34;;;;;;;15.03;9.97;;;4.80;1.00;;;;;;5027489;28;20659;-60
2022/11/25 07:57:00;;;;;;;19.63;10.93;;;4.90;99.90;;;;;;5028448;28;20191;-60
2022/11/25 07:59:26;;;;;;;17.77;11.10;;;4.80;1.00;;;;;;5029021;28;20678;-63
2022/11/25 08:01:53;;;;;;;22.70;10.20;;;4.80;1.00;;;;;;5026444;28;20183;-60
2022/11/25 08:04:19;;;;;;;26.23;10.53;;;4.90;1.00;;;;;;5028547;28;20470;-61
2022/11/25 08:06:46;;;;;;;39.30;12.13;;;4.90;1.00;;;;;;5028469;28;20474;-62
2022/11/25 08:09:18;;;;;;;35.27;12.03;;;5.10;99.90;;;;;;5028387;28;20179;-63
2022/11/25 08:11:44;;;;;;;22.47;9.83;;;5.10;67.00;;;;;;5027387;28;20465;-60
2022/11/25 08:14:10;;;;;;;18.67;10.27;;;5.20;1.00;;;;;;5028917;28;20441;-62
2022/11/25 08:16:37;;;;;;;36.83;11.40;;;5.30;1.00;;;;;;5028145;28;20426;-61
2022/11/25 08:19:05;;;;;;;26.27;12.20;;;5.40;1.00;;;;;;5029179;28;20501;-60
2022/11/25 08:21:31;;;;;;;23.53;9.13;;;5.40;1.00;;;;;;5028453;28;20492;-60
2022/11/25 08:23:57;;;;;;;20.37;9.93;;;5.50;99.90;;;;;;5028668;28;20441;-59
2022/11/25 08:26:36;;;;;;;17.03;10.20;;;5.60;99.90;;;;;;5028748;28;20482;-66
2022/11/25 08:29:04;;;;;;;16.43;9.57;;;5.80;1.00;;;;;;5028615;28;20262;-60
2022/11/25 08:31:32;;;;;;;15.57;8.80;;;6.00;1.00;;;;;;5028506;28;20426;-60
2022/11/25 08:33:59;;;;;;;12.90;8.63;;;6.50;99.90;;;;;;5028906;28;20853;-63
2022/11/25 08:36:26;;;;;;;10.57;8.07;;;6.90;1.00;;;;;;5029274;28;20433;-60
2022/11/25 08:38:54;;;;;;;13.10;8.77;;;7.00;1.00;;;;;;5026637;28;20464;-60
2022/11/25 08:41:25;;;;;;;15.93;8.60;;;6.90;99.90;;;;;;5021216;28;20818;-62
2022/11/25 08:43:51;;;;;;;14.43;8.83;;;6.80;99.90;;;;;;5026257;28;20436;-64
2022/11/25 08:46:20;;;;;;;20.10;9.00;;;6.60;1.00;;;;;;5021221;28;20470;-64
2022/11/25 08:48:46;;;;;;;12.53;8.77;;;6.50;1.00;;;;;;5028680;28;20426;-59
2022/11/25 08:51:18;;;;;;;10.13;7.63;;;6.30;1.00;;;;;;5027204;28;20512;-60
2022/11/25 08:53:45;;;;;;;13.77;8.90;;;6.20;99.90;;;;;;5027469;28;20183;-62
2022/11/25 08:56:11;;;;;;;36.93;11.10;;;6.20;99.90;;;;;;5020666;28;20477;-61
2022/11/25 08:58:37;;;;;;;31.33;11.80;;;6.20;1.00;;;;;;5028470;28;20477;-62
2022/11/25 09:01:04;;;;;;;26.97;9.90;;;6.30;1.00;;;;;;5026330;28;20492;-60
2022/11/25 09:03:39;;;;;;;12.97;7.97;;;6.40;1.00;;;;;;5028302;28;20545;-62
2022/11/25 09:06:06;;;;;;;11.40;8.70;;;6.40;1.00;;;;;;5025788;28;20816;-61
2022/11/25 09:08:32;;;;;;;12.07;9.20;;;6.50;1.00;;;;;;5026635;28;20426;-62
2022/11/25 09:10:59;;;;;;;12.80;7.87;;;6.60;1.00;;;;;;5026885;28;20427;-62
2022/11/25 09:13:25;;;;;;;14.33;8.67;;;6.90;99.90;;;;;;5027641;28;20431;-62
2022/11/25 09:15:51;;;;;;;14.80;7.50;;;7.30;99.90;;;;;;5028487;28;20462;-62
2022/11/25 09:18:19;;;;;;;9.87;6.63;;;8.20;1.00;;;;;;5028178;28;20445;-63
2022/11/25 09:20:45;;;;;;;9.70;8.40;;;9.00;99.90;;;;;;5027401;28;20263;-62
2022/11/25 09:23:11;;;;;;;10.10;8.40;;;9.20;40.80;;;;;;5026881;28;20441;-63
2022/11/25 09:25:37;;;;;;;9.87;8.17;;;8.90;1.00;;;;;;5027911;28;20462;-66
2022/11/25 09:28:03;;;;;;;14.87;8.87;;;8.40;79.90;;;;;;5027930;28;20565;-66
2022/11/25 09:30:29;;;;;;;14.00;8.20;;;8.10;99.90;;;;;;5026687;28;20183;-66
2022/11/25 09:32:55;;;;;;;8.53;7.30;;;7.90;99.90;;;;;;5028586;28;20866;-66
2022/11/25 09:35:23;;;;;;;14.33;6.60;;;7.60;99.90;;;;;;5027777;28;20477;-67
2022/11/25 09:37:49;;;;;;;9.60;6.87;;;7.50;1.00;;;;;;5027560;28;20442;-65
2022/11/25 09:40:28;;;;;;;8.70;7.23;;;7.40;1.00;;;;;;5020873;28;20437;-66
2022/11/25 09:49:33;;;;;;;12.50;7.37;;;7.20;99.90;;;;;;5027645;28;20900;-66
2022/11/25 09:52:40;;;;;;;15.60;7.80;;;7.20;99.90;;;;;;5027563;28;20442;-66
2022/11/25 09:55:12;;;;;;;16.40;8.63;;;7.40;99.90;;;;;;5025132;28;20457;-66
2022/11/25 09:58:14;;;;;;;14.87;8.17;;;7.50;99.90;;;;;;5026287;28;20434;-66
2022/11/25 10:00:42;;;;;;;37.30;11.10;;;7.50;99.90;;;;;;5026502;28;20452;-66
2022/11/25 10:03:23;;;;;;;18.20;7.67;;;7.50;99.90;;;;;;5031926;28;20440;-67
2022/11/25 10:06:01;;;;;;;35.83;10.90;;;7.60;99.90;;;;;;5030807;28;20465;-65
2022/11/25 10:08:42;;;;;;;38.43;10.80;;;7.70;99.90;;;;;;5031445;28;20418;-66
2022/11/25 10:11:20;;;;;;;22.90;8.77;;;7.80;99.90;;;;;;5025432;28;20496;-65
2022/11/25 10:13:58;;;;;;;23.30;8.17;;;7.90;99.90;;;;;;5031604;28;20911;-66
2022/11/25 10:17:01;;;;;;;17.63;8.13;;;7.80;99.90;;;;;;5030899;28;20533;-67
2022/11/25 10:19:55;;;;;;;14.87;8.80;;;7.90;99.90;;;;;;5029909;28;20442;-65
2022/11/25 10:22:20;;;;;;;14.13;7.27;;;7.80;1.00;;;;;;5029097;28;20438;-67
2022/11/25 10:24:48;;;;;;;16.27;8.60;;;7.70;1.00;;;;;;5029156;28;20991;-66
2022/11/25 10:27:35;;;;;;;15.73;8.50;;;7.60;99.90;;;;;;5026474;28;20656;-66
2022/11/25 10:30:23;;;;;;;23.50;9.37;;;7.60;99.90;;;;;;5029899;28;20445;-68
2022/11/25 10:32:53;;;;;;;30.43;9.10;;;7.70;99.90;;;;;;5033481;28;20598;-67
2022/11/25 10:35:57;;;;;;;10.03;8.50;;;7.70;99.90;;;;;;5035583;28;20537;-66
2022/11/25 10:38:29;;;;;;;20.03;9.03;;;7.80;99.90;;;;;;5039332;28;20457;-66
2022/11/25 10:40:55;;;;;;;10.27;7.77;;;7.90;99.90;;;;;;5038627;28;20430;-66
2022/11/25 10:43:21;;;;;;;14.83;7.83;;;7.90;99.90;;;;;;5040744;28;20469;-66
2022/11/25 10:46:04;;;;;;;10.23;7.83;;;7.90;99.90;;;;;;5042905;28;21007;-66
2022/11/25 10:48:31;;;;;;;28.40;9.83;;;8.00;99.90;;;;;;5041399;28;20500;-67
2022/11/25 10:51:10;;;;;;;21.03;9.20;;;8.10;99.90;;;;;;5036067;28;20820;-66
2022/11/25 10:53:37;;;;;;;15.93;9.37;;;8.20;21.10;;;;;;5029280;28;20525;-65
2022/11/25 10:56:17;;;;;;;14.63;8.97;;;8.20;1.00;;;;;;5033519;28;21125;-66
2022/11/25 10:58:43;;;;;;;13.33;7.93;;;8.30;1.00;;;;;;5032812;28;20430;-66
2022/11/25 11:01:19;;;;;;;9.80;7.83;;;8.30;1.00;;;;;;5030372;28;20865;-65
2022/11/25 11:04:04;;;;;;;33.33;9.63;;;8.40;1.00;;;;;;5032566;28;20902;-67
2022/11/25 11:06:41;;;;;;;21.10;8.53;;;8.40;1.00;;;;;;5031358;28;20462;-67
2022/11/25 11:09:29;;;;;;;13.63;7.20;;;8.40;1.00;;;;;;5028995;28;20454;-66
2022/11/25 11:11:55;;;;;;;14.43;7.90;;;8.30;99.90;;;;;;5029381;28;20505;-65
2022/11/25 11:14:20;;;;;;;21.33;8.93;;;8.20;1.00;;;;;;5030368;28;20524;-67
2022/11/25 11:16:53;;;;;;;18.10;9.30;;;8.30;1.00;;;;;;5030824;28;20176;-67
2022/11/25 11:19:24;;;;;;;16.53;9.03;;;8.40;1.00;;;;;;5028353;28;20211;-66
2022/11/25 11:21:51;;;;;;;10.00;7.77;;;8.40;1.00;;;;;;5027422;28;21015;-65
2022/11/25 11:24:36;;;;;;;35.40;10.43;;;8.50;99.90;;;;;;5029147;28;20417;-66
2022/11/25 11:27:20;;;;;;;43.20;12.40;;;8.50;1.00;;;;;;5031096;28;20593;-66
2022/11/25 11:29:46;;;;;;;28.50;9.60;;;8.60;99.90;;;;;;5013182;28;20796;-67
2022/11/25 11:32:24;;;;;;;33.60;10.27;;;8.70;99.90;;;;;;5011150;28;20453;-66
2022/11/25 11:35:07;;;;;;;43.53;10.70;;;8.60;47.60;;;;;;5011262;28;20195;-65
2022/11/25 11:37:36;;;;;;;12.77;7.57;;;8.70;99.90;;;;;;5018833;28;20584;-68
2022/11/25 11:40:13;;;;;;;16.20;7.07;;;8.70;99.50;;;;;;5028948;28;20981;-67
2022/11/25 11:42:45;;;;;;;11.60;7.40;;;8.70;99.90;;;;;;5029882;28;20974;-66
2022/11/25 11:45:20;;;;;;;19.13;8.20;;;8.70;99.90;;;;;;5010770;28;20447;-67
2022/11/25 11:47:58;;;;;;;26.07;10.53;;;8.80;99.90;;;;;;5021098;28;20425;-65
2022/11/25 11:50:42;;;;;;;9.33;6.80;;;8.80;99.90;;;;;;5027755;28;20421;-66
2022/11/25 11:53:39;;;;;;;17.90;7.60;;;8.70;84.10;;;;;;5026362;28;20477;-65
2022/11/25 11:56:23;;;;;;;11.63;6.77;;;8.70;99.90;;;;;;5036585;28;20458;-65
2022/11/25 11:58:49;;;;;;;10.67;6.10;;;8.70;99.90;;;;;;5027206;28;20426;-65
2022/11/25 12:01:45;;;;;;;9.93;6.10;;;8.80;99.90;;;;;;5025341;28;20535;-66
2022/11/25 12:04:29;;;;;;;8.90;6.53;;;8.80;99.90;;;;;;5026134;28;20426;-67
2022/11/25 12:07:06;;;;;;;10.27;6.83;;;8.80;99.90;;;;;;5024076;28;20462;-66
2022/11/25 12:09:42;;;;;;;7.87;6.23;;;8.80;99.90;;;;;;5025826;28;20448;-67
2022/11/25 12:12:14;;;;;;;12.67;6.70;;;8.80;99.90;;;;;;5022818;28;20890;-68
2022/11/25 12:14:50;;;;;;;14.30;8.07;;;8.90;99.90;;;;;;5029564;28;20442;-66
2022/11/25 12:17:43;;;;;;;9.17;7.00;;;8.90;99.90;;;;;;5020102;28;20474;-66
2022/11/25 12:20:35;;;;;;;8.07;6.23;;;8.90;99.90;;;;;;5026807;28;20918;-67
2022/11/25 12:23:35;;;;;;;12.00;6.50;;;9.00;99.90;;;;;;5028058;28;20428;-68
2022/11/25 12:26:08;;;;;;;8.47;6.20;;;9.00;99.90;;;;;;5021306;28;20524;-68
2022/11/25 12:28:42;;;;;;;17.63;8.57;;;9.00;1.00;;;;;;5028440;28;20444;-68
2022/11/25 12:31:26;;;;;;;7.47;6.07;;;9.00;1.00;;;;;;5025717;28;20426;-68
2022/11/25 12:34:10;;;;;;;15.37;7.13;;;9.00;1.00;;;;;;5026140;28;20916;-65
2022/11/25 12:36:42;;;;;;;16.47;8.00;;;9.00;1.00;;;;;;5023830;28;20430;-65
2022/11/25 12:39:33;;;;;;;21.07;9.30;;;9.10;99.90;;;;;;5019445;28;21001;-66
2022/11/25 12:42:02;;;;;;;28.27;7.90;;;9.10;1.00;;;;;;5024011;28;20537;-66
2022/11/25 12:44:45;;;;;;;47.13;9.80;;;9.10;1.00;;;;;;5033962;28;20487;-66
2022/11/25 12:47:11;;;;;;;18.03;7.40;;;9.10;99.90;;;;;;5023366;28;20465;-67
2022/11/25 12:49:44;;;;;;;13.87;7.30;;;9.10;1.00;;;;;;5029003;28;20433;-68
2022/11/25 12:52:21;;;;;;;9.80;5.80;;;9.10;1.00;;;;;;5027877;28;20179;-66
2022/11/25 12:55:08;;;;;;;13.13;7.63;;;9.10;99.90;;;;;;5029718;28;20460;-67
2022/11/25 12:57:46;;;;;;;28.43;9.10;;;9.10;1.00;;;;;;5029071;28;20566;-68
2022/11/25 13:00:13;;;;;;;13.20;8.57;;;9.10;1.00;;;;;;5027932;28;20418;-66
2022/11/25 13:02:54;;;;;;;17.53;8.30;;;9.20;1.00;;;;;;5028001;28;20441;-67
2022/11/25 13:05:58;;;;;;;11.17;6.80;;;9.20;1.00;;;;;;5028757;28;20479;-66
2022/11/25 13:08:44;;;;;;;13.00;7.17;;;9.20;21.30;;;;;;5022719;28;20426;-66
2022/11/25 13:11:21;;;;;;;12.63;5.73;;;9.30;10.80;;;;;;5006352;28;20534;-67
2022/11/25 13:13:57;;;;;;;119.07;19.17;;;9.30;99.90;;;;;;5027392;28;20426;-67
2022/11/25 13:16:23;;;;;;;29.47;10.03;;;9.40;1.00;;;;;;5028509;28;20898;-67
2022/11/25 13:18:49;;;;;;;35.40;7.20;;;9.40;99.90;;;;;;5028508;28;20406;-67
2022/11/25 13:21:17;;;;;;;12.03;7.17;;;9.30;99.90;;;;;;5027503;28;20501;-66
2022/11/25 13:23:55;;;;;;;15.60;6.57;;;9.40;1.00;;;;;;5028211;28;20410;-66